createdAt,value
2023-12-09T00:01:34.741Z,100426.50
2023-12-09T00:04:01.805Z,100428.53
2023-12-09T00:06:29.015Z,100417.84
2023-12-09T00:08:56.160Z,100416.78
2023-12-09T00:11:23.158Z,100428.41
2023-12-09T00:13:50.145Z,100418.63
2023-12-09T00:16:18.302Z,100424.75
2023-12-09T00:18:45.386Z,100418.94
2023-12-09T00:21:12.547Z,100423.53
2023-12-09T00:23:47.312Z,100423.53
2023-12-09T00:26:15.727Z,100421.97
2023-12-09T00:28:42.863Z,100428.09
2023-12-09T00:31:10.071Z,100423.97
2023-12-09T00:33:37.414Z,100427.84
2023-12-09T00:36:04.814Z,100421.94
2023-12-09T00:38:31.745Z,100428.47
2023-12-09T00:40:58.781Z,100428.75
2023-12-09T00:43:25.662Z,100433.41
2023-12-09T00:45:52.686Z,100430.81
2023-12-09T00:48:19.737Z,100437.81
2023-12-09T00:50:46.796Z,100438.78
2023-12-09T00:53:13.992Z,100444.41
2023-12-09T00:55:40.932Z,100443.50
2023-12-09T00:58:07.979Z,100441.75
2023-12-09T01:00:34.991Z,100445.53
2023-12-09T01:03:02.000Z,100440.19
2023-12-09T01:05:29.069Z,100449.75
2023-12-09T01:07:56.018Z,100455.75
2023-12-09T01:10:23.305Z,100457.13
2023-12-09T01:12:50.370Z,100455.94
2023-12-09T01:15:17.553Z,100462.88
2023-12-09T01:17:44.505Z,100458.47
2023-12-09T01:20:11.956Z,100454.09
2023-12-09T01:22:38.821Z,100455.69
2023-12-09T01:25:06.566Z,100452.78
2023-12-09T01:27:33.572Z,100446.78
2023-12-09T01:30:00.733Z,100450.06
2023-12-09T01:32:28.037Z,100444.50
2023-12-09T01:34:55.265Z,100443.97
2023-12-09T01:37:22.291Z,100443.25
2023-12-09T01:39:49.314Z,100442.53
2023-12-09T01:42:16.306Z,100445.66
2023-12-09T01:44:43.534Z,100441.19
2023-12-09T01:47:13.705Z,100446.09
2023-12-09T01:49:46.734Z,100448.44
2023-12-09T01:52:16.318Z,100449.88
2023-12-09T01:54:44.030Z,100451.19
2023-12-09T01:57:15.420Z,100452.41
2023-12-09T01:59:47.401Z,100446.00
2023-12-09T02:02:14.892Z,100446.66
2023-12-09T02:04:42.308Z,100447.19
2023-12-09T02:07:09.421Z,100442.91
2023-12-09T02:09:38.925Z,100436.69
2023-12-09T02:12:27.710Z,100448.50
2023-12-09T02:15:08.118Z,100447.28
2023-12-09T02:17:43.931Z,100455.91
2023-12-09T02:20:12.862Z,100452.47
2023-12-09T02:22:39.782Z,100456.22
2023-12-09T02:25:07.573Z,100458.06
2023-12-09T02:27:49.134Z,100455.66
2023-12-09T02:30:30.964Z,100455.75
2023-12-09T02:33:00.646Z,100456.28
2023-12-09T02:35:30.591Z,100454.91
2023-12-09T02:38:02.789Z,100447.09
2023-12-09T02:40:30.718Z,100451.91
2023-12-09T02:42:57.871Z,100451.34
2023-12-09T02:45:24.914Z,100455.06
2023-12-09T02:47:52.002Z,100455.66
2023-12-09T02:50:19.128Z,100454.84
2023-12-09T02:52:46.193Z,100454.84
2023-12-09T02:55:13.190Z,100457.06
2023-12-09T02:57:40.219Z,100458.63
2023-12-09T03:00:17.093Z,100458.06
2023-12-09T03:02:44.822Z,100456.19
2023-12-09T03:05:11.969Z,100451.81
2023-12-09T03:07:39.110Z,100460.44
2023-12-09T03:10:06.301Z,100464.97
2023-12-09T03:12:33.355Z,100457.34
2023-12-09T03:15:00.365Z,100458.06
2023-12-09T03:17:27.306Z,100465.56
2023-12-09T03:19:54.284Z,100466.75
2023-12-09T03:22:21.299Z,100469.50
2023-12-09T03:24:49.360Z,100460.91
2023-12-09T03:27:16.361Z,100462.09
2023-12-09T03:29:43.303Z,100464.44
2023-12-09T03:32:10.220Z,100462.66
2023-12-09T03:34:37.183Z,100460.44
2023-12-09T03:37:04.402Z,100465.34
2023-12-09T03:39:31.327Z,100461.28
2023-12-09T03:41:58.307Z,100474.53
2023-12-09T03:44:25.234Z,100467.53
2023-12-09T03:46:52.251Z,100466.59
2023-12-09T03:49:19.280Z,100471.16
2023-12-09T03:51:46.490Z,100477.03
2023-12-09T03:54:13.532Z,100469.00
2023-12-09T03:56:40.636Z,100475.28
2023-12-09T03:59:07.956Z,100471.13
2023-12-09T04:01:34.997Z,100471.38
2023-12-09T04:04:02.003Z,100464.47
2023-12-09T04:06:29.212Z,100466.72
2023-12-09T04:08:56.157Z,100472.63
2023-12-09T04:11:23.170Z,100477.63
2023-12-09T04:13:50.110Z,100476.50
2023-12-09T04:16:17.052Z,100472.72
2023-12-09T04:18:43.983Z,100489.00
2023-12-09T04:21:11.169Z,100490.97
2023-12-09T04:23:38.121Z,100494.75
2023-12-09T04:26:06.172Z,100491.31
2023-12-09T04:28:33.068Z,100501.66
2023-12-09T04:31:03.123Z,100504.72
2023-12-09T04:33:31.398Z,100493.81
2023-12-09T04:35:58.550Z,100497.72
2023-12-09T04:38:25.654Z,100495.50
2023-12-09T04:40:52.515Z,100503.72
2023-12-09T04:43:19.810Z,100501.78
2023-12-09T04:45:46.842Z,100505.69
2023-12-09T04:48:13.975Z,100505.94
2023-12-09T04:50:40.987Z,100502.47
2023-12-09T04:53:09.380Z,100515.44
2023-12-09T04:55:36.324Z,100510.25
2023-12-09T04:58:04.458Z,100513.06
2023-12-09T05:00:31.438Z,100516.44
2023-12-09T05:02:58.429Z,100512.97
2023-12-09T05:05:26.169Z,100518.66
2023-12-09T05:07:53.089Z,100518.78
2023-12-09T05:10:20.101Z,100523.66
2023-12-09T05:12:47.080Z,100524.91
2023-12-09T05:15:14.236Z,100525.59
2023-12-09T05:17:41.300Z,100532.44
2023-12-09T05:20:11.283Z,100535.91
2023-12-09T05:22:38.601Z,100533.56
2023-12-09T05:25:06.070Z,100534.69
2023-12-09T05:27:33.325Z,100532.59
2023-12-09T05:30:00.609Z,100530.19
2023-12-09T05:32:29.757Z,100533.00
2023-12-09T05:34:56.788Z,100535.50
2023-12-09T05:37:23.754Z,100538.44
2023-12-09T05:39:50.638Z,100539.94
2023-12-09T05:42:17.597Z,100541.47
2023-12-09T05:44:44.679Z,100549.84
2023-12-09T05:47:11.759Z,100557.91
2023-12-09T05:49:38.728Z,100555.41
2023-12-09T05:52:06.145Z,100557.06
2023-12-09T05:54:33.504Z,100541.41
2023-12-09T05:57:00.604Z,100549.09
2023-12-09T05:59:27.620Z,100545.75
2023-12-09T06:01:56.433Z,100549.38
2023-12-09T06:04:23.495Z,100545.34
2023-12-09T06:06:50.563Z,100551.19
2023-12-09T06:09:17.516Z,100563.47
2023-12-09T06:11:44.770Z,100554.81
2023-12-09T06:14:11.795Z,100559.97
2023-12-09T06:16:38.916Z,100553.63
2023-12-09T06:19:05.826Z,100566.13
2023-12-09T06:21:32.912Z,100561.41
2023-12-09T06:23:59.846Z,100567.16
2023-12-09T06:26:26.921Z,100565.03
2023-12-09T06:28:53.899Z,100565.03
2023-12-09T06:31:21.394Z,100571.59
2023-12-09T06:33:48.484Z,100569.38
2023-12-09T06:36:15.729Z,100566.44
2023-12-09T06:38:42.797Z,100564.34
2023-12-09T06:41:09.991Z,100569.50
2023-12-09T06:43:36.947Z,100575.34
2023-12-09T06:46:04.087Z,100570.06
2023-12-09T06:48:31.190Z,100578.16
2023-12-09T06:50:58.350Z,100572.56
2023-12-09T06:53:25.238Z,100575.50
2023-12-09T06:55:52.190Z,100583.03
2023-12-09T06:58:19.461Z,100576.59
2023-12-09T07:00:48.334Z,100575.06
2023-12-09T07:03:15.753Z,100574.25
2023-12-09T07:05:43.017Z,100576.34
2023-12-09T07:08:12.095Z,100582.88
2023-12-09T07:10:39.239Z,100584.97
2023-12-09T07:13:06.303Z,100592.06
2023-12-09T07:15:33.342Z,100596.41
2023-12-09T07:18:00.518Z,100590.53
2023-12-09T07:20:27.590Z,100591.09
2023-12-09T07:22:54.565Z,100595.56
2023-12-09T07:25:21.615Z,100596.97
2023-12-09T07:27:48.638Z,100596.28
2023-12-09T07:30:16.838Z,100603.09
2023-12-09T07:32:44.085Z,100602.25
2023-12-09T07:35:11.326Z,100605.88
2023-12-09T07:37:38.236Z,100607.00
2023-12-09T07:40:07.605Z,100604.47
2023-12-09T07:42:34.524Z,100619.81
2023-12-09T07:45:01.560Z,100611.47
2023-12-09T07:47:28.489Z,100612.84
2023-12-09T07:49:55.590Z,100615.34
2023-12-09T07:52:22.484Z,100608.94
2023-12-09T07:54:49.642Z,100607.56
2023-12-09T07:57:16.638Z,100610.84
2023-12-09T07:59:43.700Z,100611.38
2023-12-09T08:02:10.632Z,100615.00
2023-12-09T08:04:37.616Z,100611.25
2023-12-09T08:07:07.014Z,100605.94
2023-12-09T08:09:34.182Z,100609.88
2023-12-09T08:12:01.088Z,100613.34
2023-12-09T08:14:28.139Z,100605.94
2023-12-09T08:16:55.166Z,100606.22
2023-12-09T08:19:22.311Z,100603.66
2023-12-09T08:21:49.276Z,100608.84
2023-12-09T08:24:16.431Z,100613.03
2023-12-09T08:26:43.666Z,100618.56
2023-12-09T08:29:13.182Z,100609.38
2023-12-09T08:31:40.376Z,100604.31
2023-12-09T08:34:07.508Z,100602.81
2023-12-09T08:36:34.681Z,100601.44
2023-12-09T08:39:01.969Z,100607.03
2023-12-09T08:41:30.857Z,100603.97
2023-12-09T08:43:58.476Z,100603.94
2023-12-09T08:46:25.582Z,100608.72
2023-12-09T08:48:52.882Z,100609.81
2023-12-09T08:51:23.060Z,100604.25
2023-12-09T08:53:51.011Z,100602.78
2023-12-09T08:56:18.172Z,100603.97
2023-12-09T08:58:45.105Z,100597.16
2023-12-09T09:01:13.794Z,100605.31
2023-12-09T09:03:40.945Z,100610.88
2023-12-09T09:06:08.128Z,100608.34
2023-12-09T09:08:35.178Z,100618.41
2023-12-09T09:11:02.349Z,100612.22
2023-12-09T09:13:30.354Z,100603.75
2023-12-09T09:15:57.423Z,100604.09
2023-12-09T09:18:24.749Z,100605.63
2023-12-09T09:20:51.899Z,100600.19
2023-12-09T09:23:18.998Z,100608.78
2023-12-09T09:25:46.065Z,100608.28
2023-12-09T09:28:13.516Z,100608.31
2023-12-09T09:30:40.488Z,100605.28
2023-12-09T09:33:07.907Z,100602.66
2023-12-09T09:35:35.126Z,100597.09
2023-12-09T09:38:02.204Z,100599.88
2023-12-09T09:40:29.106Z,100595.56
2023-12-09T09:43:06.421Z,100594.72
2023-12-09T09:45:34.179Z,100601.22
2023-12-09T09:48:07.087Z,100608.38
2023-12-09T09:50:43.232Z,100598.47
2023-12-09T09:53:21.432Z,100596.53
2023-12-09T09:55:49.255Z,100585.53
2023-12-09T09:58:17.744Z,100581.75
2023-12-09T10:00:45.347Z,100588.75
2023-12-09T10:03:12.716Z,100570.75
2023-12-09T10:05:40.297Z,100559.97
2023-12-09T10:08:07.581Z,100566.53
2023-12-09T10:10:35.987Z,100563.91
2023-12-09T10:13:03.107Z,100561.66
2023-12-09T10:15:30.286Z,100569.63
2023-12-09T10:18:06.882Z,100561.66
2023-12-09T10:20:36.290Z,100570.16
2023-12-09T10:23:03.508Z,100566.22
2023-12-09T10:25:30.834Z,100565.44
2023-12-09T10:27:59.047Z,100574.94
2023-12-09T10:30:26.443Z,100568.22
2023-12-09T10:32:54.245Z,100565.44
2023-12-09T10:35:21.871Z,100564.44
2023-12-09T10:37:52.409Z,100557.09
2023-12-09T10:40:22.938Z,100555.94
2023-12-09T10:42:51.905Z,100552.03
2023-12-09T10:45:18.995Z,100550.66
2023-12-09T10:47:48.776Z,100539.53
2023-12-09T10:50:15.961Z,100537.16
2023-12-09T10:52:43.069Z,100541.50
2023-12-09T10:55:10.273Z,100551.09
2023-12-09T10:57:37.575Z,100546.50
2023-12-09T11:00:12.594Z,100553.34
2023-12-09T11:02:42.756Z,100549.03
2023-12-09T11:05:13.455Z,100548.19
2023-12-09T11:07:41.653Z,100540.81
2023-12-09T11:10:10.392Z,100544.69
2023-12-09T11:12:37.663Z,100550.25
2023-12-09T11:15:33.701Z,100552.22
2023-12-09T11:18:11.937Z,100549.28
2023-12-09T11:20:42.867Z,100546.25
2023-12-09T11:23:11.874Z,100531.19
2023-12-09T11:25:44.013Z,100519.91
2023-12-09T11:28:13.452Z,100518.78
2023-12-09T11:30:43.354Z,100516.13
2023-12-09T11:33:11.079Z,100512.44
2023-12-09T11:35:39.533Z,100512.28
2023-12-09T11:38:09.396Z,100518.00
2023-12-09T11:40:38.013Z,100513.72
2023-12-09T11:43:05.425Z,100516.38
2023-12-09T11:45:32.916Z,100518.06
2023-12-09T11:48:01.909Z,100510.28
2023-12-09T11:50:30.586Z,100516.03
2023-12-09T11:52:57.806Z,100508.56
2023-12-09T11:55:24.981Z,100489.63
2023-12-09T11:57:51.944Z,100488.50
2023-12-09T12:00:20.346Z,100495.56
2023-12-09T12:02:49.938Z,100492.97
2023-12-09T12:05:17.490Z,100484.66
2023-12-09T12:07:44.557Z,100487.22
2023-12-09T12:10:11.901Z,100484.34
2023-12-09T12:12:38.975Z,100487.53
2023-12-09T12:15:06.667Z,100478.34
2023-12-09T12:17:40.950Z,100468.25
2023-12-09T12:22:56.990Z,100466.63
2023-12-09T12:25:26.700Z,100467.59
2023-12-09T12:27:58.229Z,100469.84
2023-12-09T12:30:25.486Z,100472.47
2023-12-09T12:32:57.831Z,100471.88
2023-12-09T12:35:26.375Z,100468.50
2023-12-09T12:37:56.029Z,100471.22
2023-12-09T12:40:23.163Z,100470.28
2023-12-09T12:42:51.573Z,100460.38
2023-12-09T12:45:20.065Z,100454.47
2023-12-09T12:47:48.505Z,100448.91
2023-12-09T12:50:19.248Z,100465.66
2023-12-09T12:52:47.119Z,100465.97
2023-12-09T12:55:14.397Z,100459.94
2023-12-09T12:57:42.078Z,100453.41
2023-12-09T13:00:12.559Z,100442.03
2023-12-09T13:02:40.111Z,100448.53
2023-12-09T13:05:08.250Z,100459.09
2023-12-09T13:07:35.319Z,100460.34
2023-12-09T13:10:02.343Z,100452.84
2023-12-09T13:12:29.742Z,100448.84
2023-12-09T13:14:57.726Z,100447.13
2023-12-09T13:17:24.773Z,100430.34
2023-12-09T13:19:51.814Z,100427.81
2023-12-09T13:22:19.034Z,100425.38
2023-12-09T13:24:46.329Z,100427.78
2023-12-09T13:27:14.304Z,100432.84
2023-12-09T13:29:41.257Z,100422.97
2023-12-09T13:32:08.372Z,100410.81
2023-12-09T13:34:35.360Z,100408.03
2023-12-09T13:37:02.569Z,100415.22
2023-12-09T13:39:29.692Z,100407.25
2023-12-09T13:41:56.688Z,100413.66
2023-12-09T13:44:23.597Z,100417.66
2023-12-09T13:46:50.667Z,100421.72
2023-12-09T13:49:17.893Z,100409.50
2023-12-09T13:51:45.004Z,100417.91
2023-12-09T13:54:12.442Z,100422.09
2023-12-09T13:56:40.924Z,100426.84
2023-12-09T13:59:07.942Z,100431.91
2023-12-09T14:01:35.080Z,100434.78
2023-12-09T14:04:02.669Z,100425.19
2023-12-09T14:06:29.747Z,100419.19
2023-12-09T14:08:56.755Z,100418.91
2023-12-09T14:11:27.076Z,100402.72
2023-12-09T14:13:55.859Z,100408.44
2023-12-09T14:16:23.265Z,100413.66
2023-12-09T14:18:50.597Z,100413.22
2023-12-09T14:21:17.762Z,100411.00
2023-12-09T14:23:44.770Z,100410.22
2023-12-09T14:26:11.716Z,100411.06
2023-12-09T14:28:38.816Z,100407.75
2023-12-09T14:31:06.922Z,100420.22
2023-12-09T14:33:39.557Z,100416.06
2023-12-09T14:36:10.266Z,100418.88
2023-12-09T14:38:37.420Z,100403.28
2023-12-09T14:41:04.675Z,100393.69
2023-12-09T14:43:31.738Z,100393.19
2023-12-09T14:45:58.996Z,100411.53
2023-12-09T14:48:28.829Z,100409.13
2023-12-09T14:50:57.203Z,100400.41
2023-12-09T14:53:24.304Z,100396.16
2023-12-09T14:55:51.721Z,100400.31
2023-12-09T14:58:19.574Z,100403.56
2023-12-09T15:00:51.033Z,100399.19
2023-12-09T15:03:18.769Z,100402.25
2023-12-09T15:05:45.815Z,100402.50
2023-12-09T15:08:13.464Z,100399.97
2023-12-09T15:10:40.831Z,100404.41
2023-12-09T15:13:07.918Z,100406.38
2023-12-09T15:15:34.951Z,100396.06
2023-12-09T15:18:02.180Z,100388.84
2023-12-09T15:20:29.185Z,100388.69
2023-12-09T15:22:58.120Z,100386.34
2023-12-09T15:25:25.306Z,100395.63
2023-12-09T15:27:52.748Z,100390.91
2023-12-09T15:30:20.491Z,100388.91
2023-12-09T15:32:48.377Z,100388.25
2023-12-09T15:35:15.432Z,100387.19
2023-12-09T15:37:43.737Z,100383.13
2023-12-09T15:40:12.466Z,100381.84
2023-12-09T15:42:39.586Z,100377.88
2023-12-09T15:45:07.075Z,100365.19
2023-12-09T15:47:34.173Z,100367.41
2023-12-09T15:50:02.213Z,100379.50
2023-12-09T15:52:29.446Z,100375.56
2023-12-09T15:54:56.846Z,100372.75
2023-12-09T15:57:24.253Z,100365.38
2023-12-09T15:59:54.735Z,100357.41
2023-12-09T16:02:22.512Z,100354.63
2023-12-09T16:04:49.524Z,100356.56
2023-12-09T16:07:17.005Z,100361.28
2023-12-09T16:09:51.737Z,100357.06
2023-12-09T16:12:21.738Z,100359.63
2023-12-09T16:14:53.204Z,100358.94
2023-12-09T16:17:20.804Z,100358.28
2023-12-09T16:19:47.884Z,100352.56
2023-12-09T16:22:15.202Z,100350.91
2023-12-09T16:24:42.210Z,100355.47
2023-12-09T16:27:10.121Z,100353.97
2023-12-09T16:29:37.147Z,100359.03
2023-12-09T16:32:06.556Z,100360.16
2023-12-09T16:34:35.333Z,100354.91
2023-12-09T16:37:02.556Z,100353.50
2023-12-09T16:39:29.572Z,100356.25
2023-12-09T16:41:56.609Z,100355.53
2023-12-09T16:44:24.291Z,100353.19
2023-12-09T16:46:52.992Z,100360.44
2023-12-09T16:49:20.279Z,100351.41
2023-12-09T16:51:47.488Z,100360.16
2023-12-09T16:54:14.574Z,100351.59
2023-12-09T16:56:41.821Z,100349.91
2023-12-09T16:59:12.137Z,100352.47
2023-12-09T17:01:41.990Z,100361.28
2023-12-09T17:04:09.667Z,100354.19
2023-12-09T17:06:37.072Z,100357.00
2023-12-09T17:09:04.185Z,100361.34
2023-12-09T17:11:31.349Z,100352.00
2023-12-09T17:13:58.292Z,100357.22
2023-12-09T17:16:26.042Z,100351.53
2023-12-09T17:18:53.179Z,100353.19
2023-12-09T17:21:20.999Z,100354.28
2023-12-09T17:23:48.367Z,100352.38
2023-12-09T17:26:15.540Z,100341.78
2023-12-09T17:28:42.875Z,100340.38
2023-12-09T17:31:09.907Z,100327.84
2023-12-09T17:33:39.241Z,100324.91
2023-12-09T17:36:06.720Z,100318.06
2023-12-09T17:38:33.891Z,100314.06
2023-12-09T17:41:00.925Z,100316.97
2023-12-09T17:43:27.936Z,100330.44
2023-12-09T17:45:55.507Z,100314.84
2023-12-09T17:48:25.144Z,100312.59
2023-12-09T17:50:52.552Z,100310.78
2023-12-09T17:53:21.546Z,100292.97
2023-12-09T17:55:49.777Z,100291.59
2023-12-09T17:58:17.640Z,100280.03
2023-12-09T18:00:44.916Z,100287.09
2023-12-09T18:03:12.151Z,100272.38
2023-12-09T18:05:39.317Z,100268.50
2023-12-09T18:08:06.854Z,100264.22
2023-12-09T18:10:34.016Z,100257.47
2023-12-09T18:13:01.091Z,100245.63
2023-12-09T18:15:28.166Z,100233.44
2023-12-09T18:17:55.391Z,100230.50
2023-12-09T18:20:22.558Z,100227.75
2023-12-09T18:22:49.606Z,100225.56
2023-12-09T18:25:16.727Z,100210.59
2023-12-09T18:27:44.268Z,100206.38
2023-12-09T18:30:11.656Z,100206.38
2023-12-09T18:32:39.981Z,100195.47
2023-12-09T18:35:10.681Z,100207.91
2023-12-09T18:37:38.943Z,100200.25
2023-12-09T18:40:11.368Z,100198.88
2023-12-09T18:42:38.823Z,100206.25
2023-12-09T18:45:06.937Z,100201.47
2023-12-09T18:47:36.097Z,100199.63
2023-12-09T18:50:04.552Z,100195.69
2023-12-09T18:52:32.724Z,100192.13
2023-12-09T18:55:00.147Z,100197.03
2023-12-09T18:57:27.260Z,100175.84
2023-12-09T18:59:54.215Z,100168.47
2023-12-09T19:02:21.379Z,100163.47
2023-12-09T19:04:50.683Z,100173.97
2023-12-09T19:07:19.564Z,100172.31
2023-12-09T19:09:46.978Z,100164.88
2023-12-09T19:12:14.235Z,100159.44
2023-12-09T19:14:41.313Z,100143.56
2023-12-09T19:17:08.924Z,100143.31
2023-12-09T19:19:36.134Z,100128.41
2023-12-09T19:22:04.614Z,100112.47
2023-12-09T19:24:31.716Z,100114.50
2023-12-09T19:26:58.992Z,100118.66
2023-12-09T19:29:26.212Z,100109.81
2023-12-09T19:31:53.246Z,100109.06
2023-12-09T19:34:20.495Z,100118.91
2023-12-09T19:36:48.020Z,100116.25
2023-12-09T19:39:18.020Z,100124.19
2023-12-09T19:41:45.356Z,100119.72
2023-12-09T19:44:12.369Z,100117.19
2023-12-09T19:46:39.417Z,100104.88
2023-12-09T19:49:07.019Z,100098.47
2023-12-09T19:51:34.213Z,100092.03
2023-12-09T19:54:01.293Z,100104.91
2023-12-09T19:56:30.452Z,100110.09
2023-12-09T19:58:57.432Z,100116.41
2023-12-09T20:01:24.554Z,100111.63
2023-12-09T20:03:51.919Z,100109.66
2023-12-09T20:06:19.497Z,100116.53
2023-12-09T20:08:46.644Z,100122.13
2023-12-09T20:11:14.206Z,100101.56
2023-12-09T20:13:41.243Z,100085.91
2023-12-09T20:16:09.268Z,100083.03
2023-12-09T20:18:36.285Z,100083.25
2023-12-09T20:21:03.663Z,100095.16
2023-12-09T20:23:30.717Z,100085.81
2023-12-09T20:25:57.835Z,100094.69
2023-12-09T20:28:24.914Z,100087.50
2023-12-09T20:30:54.125Z,100077.41
2023-12-09T20:33:22.247Z,100083.63
2023-12-09T20:35:49.696Z,100084.22
2023-12-09T20:38:17.157Z,100076.97
2023-12-09T20:40:45.787Z,100064.09
2023-12-09T20:43:12.958Z,100049.78
2023-12-09T20:45:40.283Z,100050.56
2023-12-09T20:48:07.374Z,100045.59
2023-12-09T20:50:34.543Z,100045.50
2023-12-09T20:53:02.907Z,100059.72
2023-12-09T20:55:29.958Z,100063.06
2023-12-09T20:57:56.954Z,100051.19
2023-12-09T21:00:24.187Z,100052.47
2023-12-09T21:02:51.176Z,100057.16
2023-12-09T21:05:19.724Z,100037.66
2023-12-09T21:07:48.670Z,100033.66
2023-12-09T21:10:15.748Z,100036.44
2023-12-09T21:12:42.793Z,100034.78
2023-12-09T21:15:09.874Z,100017.41
2023-12-09T21:17:36.862Z,100030.47
2023-12-09T21:20:04.268Z,100019.34
2023-12-09T21:22:31.843Z,100000.09
2023-12-09T21:24:59.206Z,100006.25
2023-12-09T21:27:26.255Z,100001.19
2023-12-09T21:29:53.651Z,99991.56
2023-12-09T21:32:20.713Z,99997.88
2023-12-09T21:34:48.084Z,100005.75
2023-12-09T21:37:15.247Z,100018.91
2023-12-09T21:39:42.266Z,100012.94
2023-12-09T21:42:09.576Z,100006.94
2023-12-09T21:44:36.750Z,100001.81
2023-12-09T21:47:04.103Z,100003.84
2023-12-09T21:49:31.300Z,99993.81
2023-12-09T21:51:58.841Z,99999.78
2023-12-09T21:54:25.945Z,99998.19
2023-12-09T21:56:52.881Z,99988.97
2023-12-09T21:59:19.884Z,99969.72
2023-12-09T22:01:49.804Z,99968.03
2023-12-09T22:04:21.549Z,99989.06
2023-12-09T22:06:48.828Z,99986.03
2023-12-09T22:09:19.332Z,99985.28
2023-12-09T22:11:46.459Z,99968.50
2023-12-09T22:14:13.471Z,99966.50
2023-12-09T22:16:42.815Z,99955.84
2023-12-09T22:19:10.151Z,99947.44
2023-12-09T22:21:45.039Z,99943.28
2023-12-09T22:24:12.584Z,99935.38
2023-12-09T22:26:47.299Z,99926.31
2023-12-09T22:29:14.432Z,99931.88
2023-12-09T22:31:42.996Z,99922.09
2023-12-09T22:34:11.984Z,99934.66
2023-12-09T22:36:42.937Z,99926.81
2023-12-09T22:39:13.512Z,99930.72
2023-12-09T22:41:40.975Z,99916.63
2023-12-09T22:44:08.110Z,99914.44
2023-12-09T22:46:35.272Z,99909.78
2023-12-09T22:49:08.069Z,99910.47
2023-12-09T22:51:37.307Z,99898.75
2023-12-09T22:54:04.679Z,99892.00
2023-12-09T22:56:32.390Z,99892.91
2023-12-09T22:59:00.007Z,99887.88
2023-12-09T23:01:31.346Z,99877.22
2023-12-09T23:03:58.461Z,99866.31
2023-12-09T23:06:25.856Z,99881.88
2023-12-09T23:08:53.465Z,99871.75
2023-12-09T23:11:21.110Z,99879.91
2023-12-09T23:13:51.099Z,99869.28
2023-12-09T23:16:18.169Z,99882.81
2023-12-09T23:18:45.481Z,99885.97
2023-12-09T23:21:12.588Z,99873.47
2023-12-09T23:23:40.130Z,99872.28
2023-12-09T23:26:07.485Z,99863.16
2023-12-09T23:28:34.952Z,99864.16
2023-12-09T23:31:03.860Z,99864.03
2023-12-09T23:33:32.266Z,99864.69
2023-12-09T23:35:59.638Z,99875.25
2023-12-09T23:38:26.669Z,99869.94
2023-12-09T23:40:53.736Z,99860.50
2023-12-09T23:43:20.681Z,99850.78
2023-12-09T23:45:47.815Z,99847.97
2023-12-09T23:48:19.000Z,99839.03
2023-12-09T23:50:46.332Z,99835.44
2023-12-09T23:53:14.683Z,99830.47
2023-12-09T23:55:41.870Z,99819.16
2023-12-09T23:58:09.783Z,99821.97
